Hesperides — EANN — position and weather

sailwx.info

Track history (hours):
 
Tides and Currents Weather Stations Pressure Air Temp Water Temp Dewpoint Dewpoint Depression Visibility Wind Speed Wind Dir Waves Ship Positions

Hesperides

Last reported at 2015-Aug-05 07:32 UTC. Time now 2015-Aug-28 19:14 UTC.
Position N 28°51' W 013°41'.
Warning: this ship's position is 23 days out of date.

Length 122 m; draft 5.1 m.

Type: Tanker. MMSI: 224462000.

Date/timePositionNaut miles runAvg speedWind from/ knotsBaromVisibWave heightAir tempDewpointWater temp
2015-Aug-05 07:32N 28°51' W 013°41'1110.9
2015-Aug-05 06:34N 28°58' W 013°32'0 0.0
2015-Aug-04 17:31N 28°58' W 013°32'5 5.2
2015-Aug-04 16:34N 28°54' W 013°35'1212.0
2015-Aug-04 15:34N 28°49' W 013°47'1111.2
2015-Aug-04 14:33N 28°47' W 014°00'1111.0
2015-Aug-04 13:33N 28°43' W 014°12'1111.1
2015-Aug-04 12:33N 28°36' W 014°22'1111.3
2015-Aug-04 11:33N 28°31' W 014°33'1111.0
2015-Aug-04 10:33N 28°26' W 014°45'1110.6
2015-Aug-04 09:33N 28°21' W 014°55'1010.4
2015-Aug-04 08:33N 28°14' W 015°04'1110.7
2015-Aug-04 07:33N 28°06' W 015°12'1110.8
2015-Aug-04 06:34N 27°59' W 015°21'2 0.2
2015-Aug-03 20:16N 27°59' W 015°23'0 0.0
2015-Aug-03 19:28N 27°59' W 015°23'0 0.0
2015-Aug-03 18:33N 27°59' W 015°23'0 0.0
2015-Aug-03 17:33N 27°59' W 015°23'0 0.0
2015-Aug-03 16:33N 27°59' W 015°23'0 0.0
2015-Aug-03 15:33N 27°59' W 015°23'2 2.0
2015-Aug-03 14:33N 27°60' W 015°21'1110.9
2015-Aug-03 13:33N 28°11' W 015°21'9 9.4
2015-Aug-03 12:33N 28°14' W 015°31'1010.5
2015-Aug-03 11:33N 28°17' W 015°43'1010.3
2015-Aug-03 10:33N 28°20' W 015°54'1010.2
2015-Aug-03 09:33N 28°24' W 016°05'9 0.4
2015-Aug-02 13:33N 28°28' W 016°13'1 0.7
2015-Aug-02 12:27N 28°29' W 016°13'0 0.0
2015-Aug-02 11:18N 28°29' W 016°13'0 0.0
2015-Aug-02 10:15N 28°29' W 016°13'0 0.0
2015-Aug-02 09:33N 28°29' W 016°13'0 0.0
2015-Aug-02 08:21N 28°29' W 016°13'0 0.0
2015-Aug-02 07:18N 28°29' W 016°13'0 0.0
2015-Aug-02 06:33N 28°29' W 016°13'0 0.0
2015-Aug-02 05:24N 28°29' W 016°13'0 0.1
2015-Aug-02 04:18N 28°29' W 016°13'0 0.0
2015-Aug-02 03:24N 28°29' W 016°13'0 0.0
2015-Aug-02 02:06N 28°29' W 016°13'0 0.0
2015-Aug-02 00:24N 28°29' W 016°13'0 0.0
2015-Aug-01 23:27N 28°29' W 016°13'0 0.0
2015-Aug-01 20:30N 28°29' W 016°13'0 0.0
2015-Aug-01 19:30N 28°29' W 016°13'0 0.0
2015-Aug-01 18:12N 28°29' W 016°13'0 0.0
2015-Aug-01 17:30N 28°29' W 016°13'0 0.0
2015-Aug-01 16:18N 28°29' W 016°13'0 0.0
2015-Aug-01 15:27N 28°29' W 016°13'0 0.0
2015-Aug-01 14:33N 28°29' W 016°13'1 0.5
2015-Aug-01 13:33N 28°29' W 016°12'1111.5
2015-Aug-01 12:33N 28°27' W 015°59'1211.8
2015-Aug-01 11:33N 28°21' W 015°48'1212.0
2015-Aug-01 10:33N 28°18' W 015°35'1211.7
2015-Aug-01 09:33N 28°15' W 015°22'1211.6
2015-Aug-01 08:33N 28°11' W 015°09'1111.2
2015-Aug-01 07:33N 28°08' W 014°57'1111.2
2015-Aug-01 06:33N 28°04' W 014°45'1111.2
2015-Aug-01 05:33N 28°01' W 014°33'1111.4
2015-Aug-01 04:33N 28°00' W 014°20'1212.1
2015-Aug-01 03:33N 28°06' W 014°08'2511.6
2015-Aug-01 01:24N 28°24' W 013°48'4 0.2
2015-Jul-31 07:25N 28°27' W 013°50'12 9.4
2015-Jul-31 06:06N 28°15' W 013°52'5 9.9
2015-Jul-31 05:33N 28°11' W 013°57'1110.9
2015-Jul-31 04:31N 28°06' W 014°08'1010.8
2015-Jul-31 03:33N 28°01' W 014°19'1111.1
2015-Jul-31 02:33N 27°58' W 014°31'1110.6
2015-Jul-31 01:33N 27°55' W 014°42'1010.4
2015-Jul-31 00:33N 27°50' W 014°53'9 9.3
2015-Jul-30 23:33N 27°48' W 015°03'1110.8
2015-Jul-30 22:33N 27°53' W 015°14'9 9.2
2015-Jul-30 21:32N 27°59' W 015°23'41 1.3
2015-Jul-29 13:15N 28°23' W 016°00'7 9.8
2015-Jul-29 12:33N 28°26' W 016°07'6 6.3
2015-Jul-29 11:33N 28°29' W 016°13'0 0.0
2015-Jul-28 21:28N 28°29' W 016°13'1 0.5
2015-Jul-28 20:19N 28°29' W 016°13'0 0.0
2015-Jul-28 19:22N 28°29' W 016°13'0 0.0
2015-Jul-28 18:25N 28°29' W 016°13'0 0.0
2015-Jul-28 16:25N 28°29' W 016°13'0 0.0
2015-Jul-28 15:25N 28°29' W 016°13'0 0.1
2015-Jul-28 14:25N 28°29' W 016°13'0 0.0
2015-Jul-28 13:28N 28°29' W 016°13'0 0.0
2015-Jul-28 12:28N 28°29' W 016°13'0 0.0
2015-Jul-28 11:13N 28°29' W 016°13'0 0.0
2015-Jul-28 10:28N 28°29' W 016°13'0 0.0
2015-Jul-28 09:31N 28°29' W 016°13'0 0.0
2015-Jul-28 08:31N 28°29' W 016°13'0 0.0
2015-Jul-28 07:31N 28°29' W 016°13'0 0.0
2015-Jul-28 06:31N 28°29' W 016°13'0 0.0
2015-Jul-28 05:31N 28°29' W 016°13'0 0.0
2015-Jul-28 04:31N 28°29' W 016°13'0 0.0
2015-Jul-28 01:19N 28°29' W 016°13'0 0.0
2015-Jul-28 00:19N 28°29' W 016°13'0 0.0
2015-Jul-27 23:31N 28°29' W 016°13'0 0.0
2015-Jul-27 22:22N 28°29' W 016°13'0 0.0
2015-Jul-27 21:22N 28°29' W 016°13'0 0.0
2015-Jul-27 17:22N 28°29' W 016°13'0 0.0
2015-Jul-27 15:28N 28°29' W 016°13'0 0.0
2015-Jul-27 13:28N 28°29' W 016°13'  
Track history (hours):
 
Tides and Currents Weather Stations Pressure Air Temp Water Temp Dewpoint Dewpoint Depression Visibility Wind Speed Wind Dir Waves Ship Positions

Hesperides

Last reported at 2015-Aug-05 07:32 UTC. Time now 2015-Aug-28 19:14 UTC.
Position N 28°51' W 013°41'.
Warning: this ship's position is 23 days out of date.

Length 122 m; draft 5.1 m.

Type: Tanker. MMSI: 224462000.

Date/timePositionNaut miles runAvg speedWind from/ knotsBaromVisibWave heightAir tempDewpointWater temp
2015-Aug-05 07:32N 28°51' W 013°41'1110.9
2015-Aug-05 06:34N 28°58' W 013°32'0 0.0
2015-Aug-04 17:31N 28°58' W 013°32'5 5.2
2015-Aug-04 16:34N 28°54' W 013°35'1212.0
2015-Aug-04 15:34N 28°49' W 013°47'1111.2
2015-Aug-04 14:33N 28°47' W 014°00'1111.0
2015-Aug-04 13:33N 28°43' W 014°12'1111.1
2015-Aug-04 12:33N 28°36' W 014°22'1111.3
2015-Aug-04 11:33N 28°31' W 014°33'1111.0
2015-Aug-04 10:33N 28°26' W 014°45'1110.6
2015-Aug-04 09:33N 28°21' W 014°55'1010.4
2015-Aug-04 08:33N 28°14' W 015°04'1110.7
2015-Aug-04 07:33N 28°06' W 015°12'1110.8
2015-Aug-04 06:34N 27°59' W 015°21'2 0.2
2015-Aug-03 20:16N 27°59' W 015°23'0 0.0
2015-Aug-03 19:28N 27°59' W 015°23'0 0.0
2015-Aug-03 18:33N 27°59' W 015°23'0 0.0
2015-Aug-03 17:33N 27°59' W 015°23'0 0.0
2015-Aug-03 16:33N 27°59' W 015°23'0 0.0
2015-Aug-03 15:33N 27°59' W 015°23'2 2.0
2015-Aug-03 14:33N 27°60' W 015°21'1110.9
2015-Aug-03 13:33N 28°11' W 015°21'9 9.4
2015-Aug-03 12:33N 28°14' W 015°31'1010.5
2015-Aug-03 11:33N 28°17' W 015°43'1010.3
2015-Aug-03 10:33N 28°20' W 015°54'1010.2
2015-Aug-03 09:33N 28°24' W 016°05'9 0.4
2015-Aug-02 13:33N 28°28' W 016°13'1 0.7
2015-Aug-02 12:27N 28°29' W 016°13'0 0.0
2015-Aug-02 11:18N 28°29' W 016°13'0 0.0
2015-Aug-02 10:15N 28°29' W 016°13'0 0.0
2015-Aug-02 09:33N 28°29' W 016°13'0 0.0
2015-Aug-02 08:21N 28°29' W 016°13'0 0.0
2015-Aug-02 07:18N 28°29' W 016°13'0 0.0
2015-Aug-02 06:33N 28°29' W 016°13'0 0.0
2015-Aug-02 05:24N 28°29' W 016°13'0 0.1
2015-Aug-02 04:18N 28°29' W 016°13'0 0.0
2015-Aug-02 03:24N 28°29' W 016°13'0 0.0
2015-Aug-02 02:06N 28°29' W 016°13'0 0.0
2015-Aug-02 00:24N 28°29' W 016°13'0 0.0
2015-Aug-01 23:27N 28°29' W 016°13'0 0.0
2015-Aug-01 20:30N 28°29' W 016°13'0 0.0
2015-Aug-01 19:30N 28°29' W 016°13'0 0.0
2015-Aug-01 18:12N 28°29' W 016°13'0 0.0
2015-Aug-01 17:30N 28°29' W 016°13'0 0.0
2015-Aug-01 16:18N 28°29' W 016°13'0 0.0
2015-Aug-01 15:27N 28°29' W 016°13'0 0.0
2015-Aug-01 14:33N 28°29' W 016°13'1 0.5
2015-Aug-01 13:33N 28°29' W 016°12'1111.5
2015-Aug-01 12:33N 28°27' W 015°59'1211.8
2015-Aug-01 11:33N 28°21' W 015°48'1212.0
2015-Aug-01 10:33N 28°18' W 015°35'1211.7
2015-Aug-01 09:33N 28°15' W 015°22'1211.6
2015-Aug-01 08:33N 28°11' W 015°09'1111.2
2015-Aug-01 07:33N 28°08' W 014°57'1111.2
2015-Aug-01 06:33N 28°04' W 014°45'1111.2
2015-Aug-01 05:33N 28°01' W 014°33'1111.4
2015-Aug-01 04:33N 28°00' W 014°20'1212.1
2015-Aug-01 03:33N 28°06' W 014°08'2511.6
2015-Aug-01 01:24N 28°24' W 013°48'4 0.2
2015-Jul-31 07:25N 28°27' W 013°50'12 9.4
2015-Jul-31 06:06N 28°15' W 013°52'5 9.9
2015-Jul-31 05:33N 28°11' W 013°57'1110.9
2015-Jul-31 04:31N 28°06' W 014°08'1010.8
2015-Jul-31 03:33N 28°01' W 014°19'1111.1
2015-Jul-31 02:33N 27°58' W 014°31'1110.6
2015-Jul-31 01:33N 27°55' W 014°42'1010.4
2015-Jul-31 00:33N 27°50' W 014°53'9 9.3
2015-Jul-30 23:33N 27°48' W 015°03'1110.8
2015-Jul-30 22:33N 27°53' W 015°14'9 9.2
2015-Jul-30 21:32N 27°59' W 015°23'41 1.3
2015-Jul-29 13:15N 28°23' W 016°00'7 9.8
2015-Jul-29 12:33N 28°26' W 016°07'6 6.3
2015-Jul-29 11:33N 28°29' W 016°13'0 0.0
2015-Jul-28 21:28N 28°29' W 016°13'1 0.5
2015-Jul-28 20:19N 28°29' W 016°13'0 0.0
2015-Jul-28 19:22N 28°29' W 016°13'0 0.0
2015-Jul-28 18:25N 28°29' W 016°13'0 0.0
2015-Jul-28 16:25N 28°29' W 016°13'0 0.0
2015-Jul-28 15:25N 28°29' W 016°13'0 0.1
2015-Jul-28 14:25N 28°29' W 016°13'0 0.0
2015-Jul-28 13:28N 28°29' W 016°13'0 0.0
2015-Jul-28 12:28N 28°29' W 016°13'0 0.0
2015-Jul-28 11:13N 28°29' W 016°13'0 0.0
2015-Jul-28 10:28N 28°29' W 016°13'0 0.0
2015-Jul-28 09:31N 28°29' W 016°13'0 0.0
2015-Jul-28 08:31N 28°29' W 016°13'0 0.0
2015-Jul-28 07:31N 28°29' W 016°13'0 0.0
2015-Jul-28 06:31N 28°29' W 016°13'0 0.0
2015-Jul-28 05:31N 28°29' W 016°13'0 0.0
2015-Jul-28 04:31N 28°29' W 016°13'0 0.0
2015-Jul-28 01:19N 28°29' W 016°13'0 0.0
2015-Jul-28 00:19N 28°29' W 016°13'0 0.0
2015-Jul-27 23:31N 28°29' W 016°13'0 0.0
2015-Jul-27 22:22N 28°29' W 016°13'0 0.0
2015-Jul-27 21:22N 28°29' W 016°13'0 0.0
2015-Jul-27 17:22N 28°29' W 016°13'0 0.0
2015-Jul-27 15:28N 28°29' W 016°13'0 0.0
2015-Jul-27 13:28N 28°29' W 016°13'  

Dump ship's entire track history